createdAt,value
2023-03-23T15:58:44.135Z,13.26
2023-03-23T16:01:31.579Z,13.07
2023-03-23T16:04:07.877Z,13.05
2023-03-23T16:06:35.738Z,13.09
2023-03-23T16:09:04.534Z,13.08
2023-03-23T16:11:33.647Z,13.13
2023-03-23T16:14:01.928Z,13.09
2023-03-23T16:16:34.594Z,13.04
2023-03-23T16:19:02.192Z,13.01
2023-03-23T16:21:29.094Z,12.99
2023-03-23T16:23:57.058Z,12.96
2023-03-23T16:26:25.112Z,12.93
2023-03-23T16:29:06.083Z,12.80
2023-03-23T16:31:41.741Z,12.71
2023-03-23T16:34:10.275Z,12.70
2023-03-23T16:36:41.229Z,12.58
2023-03-23T16:39:12.371Z,12.57
2023-03-23T16:41:39.324Z,12.56
2023-03-23T16:44:07.066Z,12.48
2023-03-23T16:46:33.824Z,12.40
2023-03-23T16:49:00.610Z,12.42
2023-03-23T16:51:27.602Z,12.35
2023-03-23T16:53:54.402Z,12.26
2023-03-23T16:56:21.191Z,12.19
2023-03-23T16:58:48.293Z,12.14
2023-03-23T17:01:16.122Z,12.10
2023-03-23T17:03:43.929Z,11.93
2023-03-23T17:06:11.204Z,11.81
2023-03-23T17:08:38.068Z,11.75
2023-03-23T17:11:05.044Z,11.72
2023-03-23T17:13:31.729Z,11.66
2023-03-23T17:16:01.094Z,11.61
2023-03-23T17:18:30.175Z,11.56
2023-03-23T17:20:57.118Z,11.45
2023-03-23T17:23:24.492Z,11.41
2023-03-23T17:25:51.780Z,11.28
2023-03-23T17:28:20.422Z,11.26
2023-03-23T17:30:48.508Z,11.13
2023-03-23T17:33:15.468Z,11.13
2023-03-23T17:35:43.075Z,11.15
2023-03-23T17:38:10.059Z,11.12
2023-03-23T17:40:37.051Z,11.05
2023-03-23T17:43:04.295Z,10.96
2023-03-23T17:45:34.091Z,10.84
2023-03-23T17:48:01.413Z,10.77
2023-03-23T17:50:28.795Z,10.74
2023-03-23T17:52:58.016Z,10.76
2023-03-23T17:55:25.456Z,10.80
2023-03-23T17:57:53.213Z,10.64
2023-03-23T18:00:22.195Z,10.62
2023-03-23T18:02:49.419Z,10.55
2023-03-23T18:05:17.433Z,10.48
2023-03-23T18:07:46.717Z,10.41
2023-03-23T18:10:29.285Z,10.37
2023-03-23T18:12:56.805Z,10.33
2023-03-23T18:15:28.115Z,10.38
2023-03-23T18:17:56.953Z,10.39
2023-03-23T18:20:23.840Z,10.38
2023-03-23T18:22:54.202Z,10.31
2023-03-23T18:28:04.510Z,10.28
2023-03-23T18:30:34.036Z,10.28
2023-03-23T18:33:01.291Z,10.26
2023-03-23T18:35:28.048Z,10.16
2023-03-23T18:37:54.864Z,10.33
2023-03-23T18:40:21.970Z,10.38
2023-03-23T18:42:49.163Z,10.62
2023-03-23T18:45:16.109Z,10.45
2023-03-23T18:47:43.547Z,10.38
2023-03-23T18:50:13.887Z,10.34
2023-03-23T18:52:45.379Z,10.22
2023-03-23T18:55:12.130Z,10.11
2023-03-23T18:57:41.777Z,10.07
2023-03-23T19:00:10.058Z,9.99
2023-03-23T19:02:39.569Z,10.08
2023-03-23T19:05:07.702Z,9.96
2023-03-23T19:07:35.249Z,9.97
2023-03-23T19:10:01.989Z,9.93
2023-03-23T19:12:28.687Z,9.75
2023-03-23T19:14:55.568Z,9.63
2023-03-23T19:17:23.464Z,9.64
2023-03-23T19:19:50.130Z,9.74
2023-03-23T19:22:17.206Z,9.76
2023-03-23T19:24:43.984Z,9.75
2023-03-23T19:27:11.100Z,9.68
2023-03-23T19:29:37.954Z,9.67
2023-03-23T19:32:05.053Z,9.64
2023-03-23T19:34:32.460Z,9.75
2023-03-23T19:37:05.527Z,9.76
2023-03-23T19:39:33.994Z,9.86
2023-03-23T19:42:00.895Z,9.76
2023-03-23T19:44:28.873Z,9.77
2023-03-23T19:46:56.271Z,9.79
2023-03-23T19:49:24.566Z,9.93
2023-03-23T19:51:52.647Z,10.11
2023-03-23T19:54:36.545Z,10.14
2023-03-23T19:57:03.787Z,10.39
2023-03-23T19:59:30.610Z,10.50
2023-03-23T20:01:57.574Z,10.54
2023-03-23T20:04:24.991Z,10.64
2023-03-23T20:06:53.768Z,10.62
2023-03-23T20:09:20.699Z,10.91
2023-03-23T20:11:47.475Z,10.88
2023-03-23T20:14:14.157Z,10.86
2023-03-23T20:16:40.841Z,11.02
2023-03-23T20:19:08.756Z,10.97
2023-03-23T20:21:35.486Z,11.10
2023-03-23T20:24:02.234Z,11.08
2023-03-23T20:26:37.373Z,11.21
2023-03-23T20:29:04.788Z,11.04
2023-03-23T20:31:41.770Z,10.86
2023-03-23T20:34:11.896Z,10.82
2023-03-23T20:36:43.652Z,10.81
2023-03-23T20:39:15.216Z,10.68
2023-03-23T20:41:43.652Z,10.81
2023-03-23T20:44:16.120Z,10.79
2023-03-23T20:46:44.206Z,10.78
2023-03-23T20:49:11.509Z,10.83
2023-03-23T20:51:40.221Z,10.79
2023-03-23T20:54:07.576Z,10.79
2023-03-23T20:56:34.912Z,10.91
2023-03-23T20:59:02.455Z,10.91
2023-03-23T21:01:29.869Z,10.94
2023-03-23T21:03:57.927Z,10.96
2023-03-23T21:06:28.495Z,10.82
2023-03-23T21:08:57.040Z,11.00
2023-03-23T21:11:25.607Z,11.02
2023-03-23T21:13:52.646Z,10.98
2023-03-23T21:16:21.422Z,10.87
2023-03-23T21:18:48.246Z,10.79
2023-03-23T21:21:18.341Z,10.81
2023-03-23T21:23:47.575Z,10.80
2023-03-23T21:26:17.208Z,10.75
2023-03-23T21:28:45.132Z,10.85
2023-03-23T21:31:12.693Z,10.82
2023-03-23T21:33:39.858Z,10.78
2023-03-23T21:36:07.583Z,10.78
2023-03-23T21:38:34.444Z,10.78
2023-03-23T21:41:09.742Z,10.72
2023-03-23T21:43:37.137Z,10.68
2023-03-23T21:46:06.031Z,10.73
2023-03-23T21:48:35.743Z,10.79
2023-03-23T21:51:07.834Z,10.69
2023-03-23T21:53:37.385Z,10.78
2023-03-23T21:56:06.602Z,10.81
2023-03-23T21:58:33.847Z,10.82
2023-03-23T22:01:01.283Z,10.69
2023-03-23T22:03:32.610Z,10.74
2023-03-23T22:06:09.133Z,10.79
2023-03-23T22:08:37.463Z,10.75
2023-03-23T22:11:20.295Z,10.62
2023-03-23T22:13:49.222Z,10.62
2023-03-23T22:16:18.293Z,10.65
2023-03-23T22:18:47.707Z,10.55
2023-03-23T22:21:16.427Z,10.69
2023-03-23T22:23:44.532Z,10.68
2023-03-23T22:26:16.555Z,10.60
2023-03-23T22:28:45.767Z,10.73
2023-03-23T22:31:17.574Z,10.55
2023-03-23T22:33:46.158Z,10.53
2023-03-23T22:36:13.136Z,10.49
2023-03-23T22:38:43.142Z,10.60
2023-03-23T22:41:15.954Z,10.67
2023-03-23T22:43:42.715Z,10.64
2023-03-23T22:46:09.453Z,10.40
2023-03-23T22:48:36.630Z,10.57
2023-03-23T22:51:03.832Z,10.44
2023-03-23T22:53:31.292Z,10.39
2023-03-23T22:55:58.658Z,10.40
2023-03-23T22:58:27.286Z,10.43
2023-03-23T23:01:04.297Z,10.43
2023-03-23T23:03:32.876Z,10.43
2023-03-23T23:06:00.762Z,10.59
2023-03-23T23:08:30.288Z,10.66
2023-03-23T23:10:59.186Z,10.42
2023-03-23T23:13:26.660Z,10.43
2023-03-23T23:15:56.907Z,10.48
2023-03-23T23:18:25.414Z,10.52
2023-03-23T23:20:56.790Z,10.49
2023-03-23T23:23:24.758Z,10.53
2023-03-23T23:25:52.229Z,10.51
2023-03-23T23:28:20.326Z,10.55
2023-03-23T23:30:48.177Z,10.54
2023-03-23T23:33:15.530Z,10.47
2023-03-23T23:35:42.665Z,10.61
2023-03-23T23:38:10.562Z,10.52
2023-03-23T23:40:37.720Z,10.72
2023-03-23T23:43:05.496Z,10.62
2023-03-23T23:45:32.462Z,10.75
2023-03-23T23:47:59.931Z,10.70
2023-03-23T23:50:27.406Z,10.78
2023-03-23T23:52:54.442Z,10.73
2023-03-23T23:55:21.985Z,10.66
2023-03-23T23:57:49.677Z,10.59
